Bethany, Nebraska
Current Conditions -  °F | °C
As of 7:54 PM on Thursday 20 Nov 2014 (Local Time) from KLNK Reporting Station
Clear Clear  
Wind Chill: 17°   Ceiling: Unl
Heat Index: 23°   Visibility: 10mi
Dew Point: 16°   Wind: 5mph
Humidity: 74%   Direction: 80°E
Pressure: 30.22"   Gusts: NA
Location:  40.8244°N, 96.6054°W
Report Text: KLNK 210154Z 08004KT 10SM CLR M05/M09 A3022 RMK AO2 SLP255 T10501089
Loading
Personal Weather Stations






























Interactive Weather Map New forecast layout! Learn more

10-Day Weather Forecast

Advertisements
Track Severe Weather on mobile